sensor_id;sensor_type;location;lat;lon;timestamp;pressure;altitude;pressure_sealevel;temperature;humidity
59043;BME280;44826;51.596;5.624;2023-05-21T00:01:21;101732.34;;;13.48;67.38
59043;BME280;44826;51.596;5.624;2023-05-21T00:03:47;101736.81;;;13.44;67.82
59043;BME280;44826;51.596;5.624;2023-05-21T00:06:13;101733.28;;;13.45;67.29
59043;BME280;44826;51.596;5.624;2023-05-21T00:08:39;101734.19;;;13.43;67.59
59043;BME280;44826;51.596;5.624;2023-05-21T00:11:05;101729.91;;;13.40;67.34
59043;BME280;44826;51.596;5.624;2023-05-21T00:13:31;101724.72;;;13.37;67.94
59043;BME280;44826;51.596;5.624;2023-05-21T00:15:56;101729.16;;;13.33;67.88
59043;BME280;44826;51.596;5.624;2023-05-21T00:18:21;101729.25;;;13.30;68.56
59043;BME280;44826;51.596;5.624;2023-05-21T00:20:50;101727.59;;;13.26;68.52
59043;BME280;44826;51.596;5.624;2023-05-21T00:23:15;101725.00;;;13.25;68.10
59043;BME280;44826;51.596;5.624;2023-05-21T00:25:43;101721.56;;;13.23;68.41
59043;BME280;44826;51.596;5.624;2023-05-21T00:28:08;101718.13;;;13.20;69.08
59043;BME280;44826;51.596;5.624;2023-05-21T00:30:34;101718.13;;;13.20;68.81
59043;BME280;44826;51.596;5.624;2023-05-21T00:32:59;101715.59;;;13.17;69.17
59043;BME280;44826;51.596;5.624;2023-05-21T00:35:27;101709.50;;;13.17;68.94
59043;BME280;44826;51.596;5.624;2023-05-21T00:37:52;101724.31;;;13.16;69.03
59043;BME280;44826;51.596;5.624;2023-05-21T00:40:18;101719.97;;;13.15;68.93
59043;BME280;44826;51.596;5.624;2023-05-21T00:42:43;101717.41;;;13.14;69.09
59043;BME280;44826;51.596;5.624;2023-05-21T00:45:12;101715.69;;;13.14;69.08
59043;BME280;44826;51.596;5.624;2023-05-21T00:47:39;101708.75;;;13.12;69.22
59043;BME280;44826;51.596;5.624;2023-05-21T00:50:07;101703.53;;;13.12;69.53
59043;BME280;44826;51.596;5.624;2023-05-21T00:52:32;101700.97;;;13.10;69.58
59043;BME280;44826;51.596;5.624;2023-05-21T00:55:07;101702.75;;;13.08;69.51
59043;BME280;44826;51.596;5.624;2023-05-21T00:57:34;101698.47;;;13.05;69.76
59043;BME280;44826;51.596;5.624;2023-05-21T01:00:02;101706.28;;;13.05;69.96
59043;BME280;44826;51.596;5.624;2023-05-21T01:02:28;101702.81;;;13.05;70.14
59043;BME280;44826;51.596;5.624;2023-05-21T01:04:57;101703.63;;;13.07;70.14
59043;BME280;44826;51.596;5.624;2023-05-21T01:07:24;101708.03;;;13.05;70.14
59043;BME280;44826;51.596;5.624;2023-05-21T01:09:50;101701.09;;;13.04;70.42
59043;BME280;44826;51.596;5.624;2023-05-21T01:12:16;101702.81;;;13.05;70.56
59043;BME280;44826;51.596;5.624;2023-05-21T01:14:42;101702.81;;;13.05;70.76
59043;BME280;44826;51.596;5.624;2023-05-21T01:17:08;101701.09;;;13.04;70.61
59043;BME280;44826;51.596;5.624;2023-05-21T01:19:34;101699.38;;;13.03;70.84
59043;BME280;44826;51.596;5.624;2023-05-21T01:22:03;101694.13;;;13.03;70.82
59043;BME280;44826;51.596;5.624;2023-05-21T01:24:29;101700.25;;;13.03;70.81
59043;BME280;44826;51.596;5.624;2023-05-21T01:26:55;101694.13;;;13.03;71.01
59043;BME280;44826;51.596;5.624;2023-05-21T01:29:23;101694.13;;;13.03;70.96
59043;BME280;44826;51.596;5.624;2023-05-21T01:32:21;101701.09;;;13.04;69.08
59043;BME280;44826;51.596;5.624;2023-05-21T01:35:03;101700.25;;;13.03;70.35
59043;BME280;44826;51.596;5.624;2023-05-21T01:37:35;101690.63;;;13.04;70.68
59043;BME280;44826;51.596;5.624;2023-05-21T01:40:09;101690.63;;;13.04;70.54
59043;BME280;44826;51.596;5.624;2023-05-21T01:42:35;101690.63;;;13.04;70.83
59043;BME280;44826;51.596;5.624;2023-05-21T01:45:03;101689.78;;;13.03;70.84
59043;BME280;44826;51.596;5.624;2023-05-21T01:47:31;101684.56;;;13.03;71.15
59043;BME280;44826;51.596;5.624;2023-05-21T01:49:58;101688.06;;;13.02;71.07
59043;BME280;44826;51.596;5.624;2023-05-21T01:52:24;101694.13;;;13.03;71.08
59043;BME280;44826;51.596;5.624;2023-05-21T01:54:50;101688.91;;;13.03;71.05
59043;BME280;44826;51.596;5.624;2023-05-21T01:57:16;101678.47;;;13.03;71.30
59043;BME280;44826;51.596;5.624;2023-05-21T01:59:42;101685.41;;;13.04;71.49
59043;BME280;44826;51.596;5.624;2023-05-21T02:02:08;101676.69;;;13.05;71.38
59043;BME280;44826;51.596;5.624;2023-05-21T02:04:33;101674.13;;;13.03;71.51
59043;BME280;44826;51.596;5.624;2023-05-21T02:06:59;101674.97;;;13.04;71.71
59043;BME280;44826;51.596;5.624;2023-05-21T02:09:24;101671.47;;;13.05;71.97
59043;BME280;44826;51.596;5.624;2023-05-21T02:11:49;101671.41;;;13.08;72.01
59043;BME280;44826;51.596;5.624;2023-05-21T02:14:15;101672.19;;;13.12;72.20
59043;BME280;44826;51.596;5.624;2023-05-21T02:16:40;101671.25;;;13.14;72.33
59043;BME280;44826;51.596;5.624;2023-05-21T02:19:06;101672.94;;;13.15;72.48
59043;BME280;44826;51.596;5.624;2023-05-21T02:21:34;101671.22;;;13.16;72.28
59043;BME280;44826;51.596;5.624;2023-05-21T02:23:59;101667.72;;;13.15;72.43
59043;BME280;44826;51.596;5.624;2023-05-21T02:26:25;101670.31;;;13.17;72.48
59043;BME280;44826;51.596;5.624;2023-05-21T02:28:51;101672.88;;;13.18;72.31
59043;BME280;44826;51.596;5.624;2023-05-21T02:31:16;101670.25;;;13.20;72.37
59043;BME280;44826;51.596;5.624;2023-05-21T02:33:42;101671.97;;;13.21;72.38
59043;BME280;44826;51.596;5.624;2023-05-21T02:36:07;101671.97;;;13.21;72.66
59043;BME280;44826;51.596;5.624;2023-05-21T02:38:37;101671.94;;;13.23;72.69
59043;BME280;44826;51.596;5.624;2023-05-21T02:41:02;101675.41;;;13.23;72.43
59043;BME280;44826;51.596;5.624;2023-05-21T02:43:27;101671.94;;;13.23;72.10
59043;BME280;44826;51.596;5.624;2023-05-21T02:45:52;101670.22;;;13.21;72.44
59043;BME280;44826;51.596;5.624;2023-05-21T02:48:18;101667.66;;;13.20;73.06
59043;BME280;44826;51.596;5.624;2023-05-21T02:50:43;101665.94;;;13.19;72.56
59043;BME280;44826;51.596;5.624;2023-05-21T02:53:08;101668.53;;;13.19;72.83
59043;BME280;44826;51.596;5.624;2023-05-21T02:55:33;101665.94;;;13.17;72.70
59043;BME280;44826;51.596;5.624;2023-05-21T02:57:59;101665.03;;;13.20;72.57
59043;BME280;44826;51.596;5.624;2023-05-21T03:00:24;101661.53;;;13.21;72.74
59043;BME280;44826;51.596;5.624;2023-05-21T03:02:49;101657.16;;;13.21;72.73
59043;BME280;44826;51.596;5.624;2023-05-21T03:05:15;101656.25;;;13.23;72.67
59043;BME280;44826;51.596;5.624;2023-05-21T03:07:40;101654.50;;;13.23;73.07
59043;BME280;44826;51.596;5.624;2023-05-21T03:10:06;101653.63;;;13.23;72.88
59043;BME280;44826;51.596;5.624;2023-05-21T03:12:31;101648.41;;;13.23;72.83
59043;BME280;44826;51.596;5.624;2023-05-21T03:14:57;101648.41;;;13.23;73.15
59043;BME280;44826;51.596;5.624;2023-05-21T03:17:23;101651.84;;;13.25;73.13
59043;BME280;44826;51.596;5.624;2023-05-21T03:19:48;101650.97;;;13.26;73.31
59043;BME280;44826;51.596;5.624;2023-05-21T03:22:14;101645.78;;;13.23;73.29
59043;BME280;44826;51.596;5.624;2023-05-21T03:24:39;101644.06;;;13.23;73.38
59043;BME280;44826;51.596;5.624;2023-05-21T03:27:06;101639.69;;;13.24;73.21
59043;BME280;44826;51.596;5.624;2023-05-21T03:29:31;101643.13;;;13.24;73.36
59043;BME280;44826;51.596;5.624;2023-05-21T03:31:57;101640.56;;;13.23;73.75
59043;BME280;44826;51.596;5.624;2023-05-21T03:34:22;101641.53;;;13.18;73.51
59043;BME280;44826;51.596;5.624;2023-05-21T03:36:48;101642.44;;;13.17;73.75
59043;BME280;44826;51.596;5.624;2023-05-21T03:39:14;101642.47;;;13.16;74.04
59043;BME280;44826;51.596;5.624;2023-05-21T03:41:39;101639.03;;;13.14;73.95
59043;BME280;44826;51.596;5.624;2023-05-21T03:44:05;101632.97;;;13.13;73.96
59043;BME280;44826;51.596;5.624;2023-05-21T03:46:30;101636.47;;;13.12;74.05
59043;BME280;44826;51.596;5.624;2023-05-21T03:48:56;101642.59;;;13.10;74.11
59043;BME280;44826;51.596;5.624;2023-05-21T03:51:22;101647.00;;;13.09;74.21
59043;BME280;44826;51.596;5.624;2023-05-21T03:53:49;101645.28;;;13.08;74.24
59043;BME280;44826;51.596;5.624;2023-05-21T03:56:14;101649.63;;;13.08;74.37
59043;BME280;44826;51.596;5.624;2023-05-21T03:58:39;101639.16;;;13.08;74.46
59043;BME280;44826;51.596;5.624;2023-05-21T04:01:04;101643.56;;;13.07;74.53
59043;BME280;44826;51.596;5.624;2023-05-21T04:03:30;101646.22;;;13.05;74.42
59043;BME280;44826;51.596;5.624;2023-05-21T04:06:00;101640.16;;;13.03;74.62
59043;BME280;44826;51.596;5.624;2023-05-21T04:08:25;101644.50;;;13.03;74.73
59043;BME280;44826;51.596;5.624;2023-05-21T04:10:51;101652.34;;;13.03;74.60
59043;BME280;44826;51.596;5.624;2023-05-21T04:13:16;101643.66;;;13.02;74.93
59043;BME280;44826;51.596;5.624;2023-05-21T04:15:41;101640.19;;;13.02;74.96
59043;BME280;44826;51.596;5.624;2023-05-21T04:18:08;101645.41;;;13.02;74.87
59043;BME280;44826;51.596;5.624;2023-05-21T04:20:35;101642.84;;;13.00;74.73
59043;BME280;44826;51.596;5.624;2023-05-21T04:23:00;101644.56;;;13.00;75.09
59043;BME280;44826;51.596;5.624;2023-05-21T04:25:27;101647.28;;;12.97;75.01
59043;BME280;44826;51.596;5.624;2023-05-21T04:27:52;101645.56;;;12.96;75.30
59043;BME280;44826;51.596;5.624;2023-05-21T04:30:18;101654.25;;;12.96;75.52
59043;BME280;44826;51.596;5.624;2023-05-21T04:32:44;101654.22;;;12.98;75.59
59043;BME280;44826;51.596;5.624;2023-05-21T04:35:12;101658.53;;;12.99;75.62
59043;BME280;44826;51.596;5.624;2023-05-21T04:37:39;101652.41;;;13.00;75.50
59043;BME280;44826;51.596;5.624;2023-05-21T04:40:07;101650.63;;;13.02;75.68
59043;BME280;44826;51.596;5.624;2023-05-21T04:42:33;101659.28;;;13.04;75.36
59043;BME280;44826;51.596;5.624;2023-05-21T04:44:58;101661.00;;;13.05;75.63
59043;BME280;44826;51.596;5.624;2023-05-21T04:47:23;101659.22;;;13.07;75.55
59043;BME280;44826;51.596;5.624;2023-05-21T04:49:49;101659.16;;;13.10;75.95
59043;BME280;44826;51.596;5.624;2023-05-21T04:52:15;101660.88;;;13.11;75.90
59043;BME280;44826;51.596;5.624;2023-05-21T04:54:40;101655.66;;;13.11;75.77
59043;BME280;44826;51.596;5.624;2023-05-21T04:57:06;101659.94;;;13.14;75.84
59043;BME280;44826;51.596;5.624;2023-05-21T04:59:32;101659.09;;;13.13;75.90
59043;BME280;44826;51.596;5.624;2023-05-21T05:01:58;101659.00;;;13.16;75.93
59043;BME280;44826;51.596;5.624;2023-05-21T05:04:23;101657.25;;;13.17;75.97
59043;BME280;44826;51.596;5.624;2023-05-21T05:06:48;101663.34;;;13.17;76.21
59043;BME280;44826;51.596;5.624;2023-05-21T05:09:14;101657.22;;;13.18;76.19
59043;BME280;44826;51.596;5.624;2023-05-21T05:11:40;101656.31;;;13.21;76.14
59043;BME280;44826;51.596;5.624;2023-05-21T05:14:05;101655.44;;;13.20;76.14
59043;BME280;44826;51.596;5.624;2023-05-21T05:16:30;101651.03;;;13.23;76.27
59043;BME280;44826;51.596;5.624;2023-05-21T05:18:56;101662.31;;;13.25;76.91
59043;BME280;44826;51.596;5.624;2023-05-21T05:21:22;101642.25;;;13.25;76.41
59043;BME280;44826;51.596;5.624;2023-05-21T05:23:47;101647.38;;;13.30;76.71
59043;BME280;44826;51.596;5.624;2023-05-21T05:26:13;101644.78;;;13.30;76.56
59043;BME280;44826;51.596;5.624;2023-05-21T05:28:38;101649.06;;;13.32;76.18
59043;BME280;44826;51.596;5.624;2023-05-21T05:31:03;101644.66;;;13.33;76.35
59043;BME280;44826;51.596;5.624;2023-05-21T05:33:29;101652.50;;;13.34;76.87
59043;BME280;44826;51.596;5.624;2023-05-21T05:35:54;101646.31;;;13.37;76.89
59043;BME280;44826;51.596;5.624;2023-05-21T05:38:19;101648.91;;;13.40;76.72
59043;BME280;44826;51.596;5.624;2023-05-21T05:40:45;101649.72;;;13.42;76.88
59043;BME280;44826;51.596;5.624;2023-05-21T05:43:10;101652.25;;;13.45;76.55
59043;BME280;44826;51.596;5.624;2023-05-21T05:45:35;101657.38;;;13.50;76.87
59043;BME280;44826;51.596;5.624;2023-05-21T05:48:01;101651.19;;;13.53;77.10
59043;BME280;44826;51.596;5.624;2023-05-21T05:50:26;101651.91;;;13.59;77.09
59043;BME280;44826;51.596;5.624;2023-05-21T05:52:51;101647.47;;;13.63;77.19
59043;BME280;44826;51.596;5.624;2023-05-21T05:55:17;101648.19;;;13.68;77.18
59043;BME280;44826;51.596;5.624;2023-05-21T05:57:42;101647.22;;;13.72;76.88
59043;BME280;44826;51.596;5.624;2023-05-21T06:00:08;101648.88;;;13.76;76.94
59043;BME280;44826;51.596;5.624;2023-05-21T06:02:34;101653.13;;;13.80;77.09
59043;BME280;44826;51.596;5.624;2023-05-21T06:05:01;101658.16;;;13.87;76.49
59043;BME280;44826;51.596;5.624;2023-05-21T06:07:27;101652.84;;;13.90;76.54
59043;BME280;44826;51.596;5.624;2023-05-21T06:09:52;101647.47;;;13.96;77.40
59043;BME280;44826;51.596;5.624;2023-05-21T06:12:17;101646.41;;;14.03;77.23
59043;BME280;44826;51.596;5.624;2023-05-21T06:14:42;101646.28;;;14.08;76.74
59043;BME280;44826;51.596;5.624;2023-05-21T06:17:10;101653.94;;;14.14;76.48
59043;BME280;44826;51.596;5.624;2023-05-21T06:19:35;101651.13;;;14.22;76.22
59043;BME280;44826;51.596;5.624;2023-05-21T06:22:00;101651.84;;;14.27;75.88
59043;BME280;44826;51.596;5.624;2023-05-21T06:24:25;101649.06;;;14.33;76.29
59043;BME280;44826;51.596;5.624;2023-05-21T06:26:51;101648.94;;;14.38;75.82
59043;BME280;44826;51.596;5.624;2023-05-21T06:29:16;101652.22;;;14.45;75.63
59043;BME280;44826;51.596;5.624;2023-05-21T06:31:42;101650.44;;;14.47;75.35
59043;BME280;44826;51.596;5.624;2023-05-21T06:34:08;101646.81;;;14.51;74.87
59043;BME280;44826;51.596;5.624;2023-05-21T06:36:33;101649.31;;;14.55;75.19
59043;BME280;44826;51.596;5.624;2023-05-21T06:38:59;101648.25;;;14.61;74.76
59043;BME280;44826;51.596;5.624;2023-05-21T06:41:25;101655.13;;;14.65;75.48
59043;BME280;44826;51.596;5.624;2023-05-21T06:43:50;101648.81;;;14.72;75.05
59043;BME280;44826;51.596;5.624;2023-05-21T06:46:15;101650.38;;;14.78;74.19
59043;BME280;44826;51.596;5.624;2023-05-21T06:48:41;101645.94;;;14.82;73.94
59043;BME280;44826;51.596;5.624;2023-05-21T06:51:06;101649.25;;;14.87;74.33
59043;BME280;44826;51.596;5.624;2023-05-21T06:53:31;101651.75;;;14.92;73.36
59043;BME280;44826;51.596;5.624;2023-05-21T06:55:57;101647.19;;;14.97;74.25
59043;BME280;44826;51.596;5.624;2023-05-21T06:58:22;101650.47;;;15.03;74.09
59043;BME280;44826;51.596;5.624;2023-05-21T07:00:47;101640.72;;;15.09;73.11
59043;BME280;44826;51.596;5.624;2023-05-21T07:03:13;101643.25;;;15.12;73.82
59043;BME280;44826;51.596;5.624;2023-05-21T07:05:39;101641.34;;;15.17;73.86
59043;BME280;44826;51.596;5.624;2023-05-21T07:08:04;101636.78;;;15.22;74.00
59043;BME280;44826;51.596;5.624;2023-05-21T07:10:29;101638.31;;;15.29;74.10
59043;BME280;44826;51.596;5.624;2023-05-21T07:12:54;101634.63;;;15.35;74.29
59043;BME280;44826;51.596;5.624;2023-05-21T07:15:20;101630.94;;;15.41;73.21
59043;BME280;44826;51.596;5.624;2023-05-21T07:17:45;101625.56;;;15.45;73.15
59043;BME280;44826;51.596;5.624;2023-05-21T07:20:11;101619.25;;;15.51;73.42
59043;BME280;44826;51.596;5.624;2023-05-21T07:22:37;101620.75;;;15.58;71.85
59043;BME280;44826;51.596;5.624;2023-05-21T07:25:03;101621.50;;;15.62;71.90
59043;BME280;44826;51.596;5.624;2023-05-21T07:27:29;101621.34;;;15.67;71.62
59043;BME280;44826;51.596;5.624;2023-05-21T07:29:54;101617.72;;;15.71;71.99
59043;BME280;44826;51.596;5.624;2023-05-21T07:32:20;101616.69;;;15.75;71.57
59043;BME280;44826;51.596;5.624;2023-05-21T07:34:45;101618.22;;;15.81;71.71
59043;BME280;44826;51.596;5.624;2023-05-21T07:37:11;101618.06;;;15.87;72.19
59043;BME280;44826;51.596;5.624;2023-05-21T07:39:37;101619.50;;;15.96;72.19
59043;BME280;44826;51.596;5.624;2023-05-21T07:42:02;101619.28;;;16.02;72.27
59043;BME280;44826;51.596;5.624;2023-05-21T07:44:27;101619.94;;;16.07;71.69
59043;BME280;44826;51.596;5.624;2023-05-21T07:46:53;101621.50;;;16.13;71.75
59043;BME280;44826;51.596;5.624;2023-05-21T07:49:18;101615.19;;;16.18;71.73
59043;BME280;44826;51.596;5.624;2023-05-21T07:51:43;101623.72;;;16.23;70.78
59043;BME280;44826;51.596;5.624;2023-05-21T07:54:09;101623.59;;;16.27;71.47
59043;BME280;44826;51.596;5.624;2023-05-21T07:56:34;101619.97;;;16.31;71.06
59043;BME280;44826;51.596;5.624;2023-05-21T07:58:59;101619.84;;;16.34;70.74
59043;BME280;44826;51.596;5.624;2023-05-21T08:01:26;101625.00;;;16.37;70.92
59043;BME280;44826;51.596;5.624;2023-05-21T08:03:52;101622.22;;;16.40;70.15
59043;BME280;44826;51.596;5.624;2023-05-21T08:06:17;101622.13;;;16.43;71.04
59043;BME280;44826;51.596;5.624;2023-05-21T08:08:42;101617.63;;;16.47;70.93
59043;BME280;44826;51.596;5.624;2023-05-21T08:11:08;101617.44;;;16.51;70.73
59043;BME280;44826;51.596;5.624;2023-05-21T08:13:33;101615.63;;;16.53;69.85
59043;BME280;44826;51.596;5.624;2023-05-21T08:15:58;101617.19;;;16.58;69.34
59043;BME280;44826;51.596;5.624;2023-05-21T08:18:23;101619.78;;;16.59;70.78
59043;BME280;44826;51.596;5.624;2023-05-21T08:20:49;101612.44;;;16.67;70.63
59043;BME280;44826;51.596;5.624;2023-05-21T08:23:14;101608.66;;;16.75;70.49
59043;BME280;44826;51.596;5.624;2023-05-21T08:25:40;101610.97;;;16.82;71.01
59043;BME280;44826;51.596;5.624;2023-05-21T08:28:05;101617.84;;;16.87;70.08
59043;BME280;44826;51.596;5.624;2023-05-21T08:30:31;101607.13;;;16.91;69.53
59043;BME280;44826;51.596;5.624;2023-05-21T08:32:56;101615.78;;;16.95;69.36
59043;BME280;44826;51.596;5.624;2023-05-21T08:35:22;101610.41;;;16.98;68.78
59043;BME280;44826;51.596;5.624;2023-05-21T08:37:48;101604.03;;;17.04;69.83
59043;BME280;44826;51.596;5.624;2023-05-21T08:40:13;101595.94;;;17.08;69.20
59043;BME280;44826;51.596;5.624;2023-05-21T08:42:42;101600.97;;;17.14;68.82
59043;BME280;44826;51.596;5.624;2023-05-21T08:45:10;101597.22;;;17.20;68.72
59043;BME280;44826;51.596;5.624;2023-05-21T08:47:42;101596.09;;;17.26;67.87
59043;BME280;44826;51.596;5.624;2023-05-21T08:50:10;101603.75;;;17.32;68.59
59043;BME280;44826;51.596;5.624;2023-05-21T08:52:36;101600.00;;;17.38;68.71
59043;BME280;44826;51.596;5.624;2023-05-21T08:55:05;101590.16;;;17.43;67.82
59043;BME280;44826;51.596;5.624;2023-05-21T08:57:31;101592.56;;;17.48;67.81
59043;BME280;44826;51.596;5.624;2023-05-21T08:59:57;101596.66;;;17.55;69.75
59043;BME280;44826;51.596;5.624;2023-05-21T09:02:23;101594.66;;;17.60;67.92
59043;BME280;44826;51.596;5.624;2023-05-21T09:04:54;101592.91;;;17.60;67.12
59043;BME280;44826;51.596;5.624;2023-05-21T09:07:25;101593.63;;;17.64;68.85
59043;BME280;44826;51.596;5.624;2023-05-21T09:10:03;101584.69;;;17.68;67.38
59043;BME280;44826;51.596;5.624;2023-05-21T09:12:30;101576.56;;;17.73;68.82
59043;BME280;44826;51.596;5.624;2023-05-21T09:14:56;101577.16;;;17.80;67.77
59043;BME280;44826;51.596;5.624;2023-05-21T09:17:22;101578.72;;;17.84;67.63
59043;BME280;44826;51.596;5.624;2023-05-21T09:20:12;101575.06;;;17.88;67.17
59043;BME280;44826;51.596;5.624;2023-05-21T09:22:43;101567.94;;;17.90;67.25
59043;BME280;44826;51.596;5.624;2023-05-21T09:25:11;101569.34;;;17.97;67.09
59043;BME280;44826;51.596;5.624;2023-05-21T09:27:37;101572.81;;;17.99;66.42
59043;BME280;44826;51.596;5.624;2023-05-21T09:30:04;101570.81;;;18.04;67.10
59043;BME280;44826;51.596;5.624;2023-05-21T09:32:30;101568.84;;;18.10;66.39
59043;BME280;44826;51.596;5.624;2023-05-21T09:34:55;101572.25;;;18.12;65.82
59043;BME280;44826;51.596;5.624;2023-05-21T09:37:21;101574.72;;;18.15;65.56
59043;BME280;44826;51.596;5.624;2023-05-21T09:39:47;101566.69;;;18.18;66.71
59043;BME280;44826;51.596;5.624;2023-05-21T09:42:12;101568.28;;;18.22;67.19
59043;BME280;44826;51.596;5.624;2023-05-21T09:44:37;101570.78;;;18.25;65.81
59043;BME280;44826;51.596;5.624;2023-05-21T09:47:03;101570.56;;;18.30;67.80
59043;BME280;44826;51.596;5.624;2023-05-21T09:49:29;101564.28;;;18.32;66.81
59043;BME280;44826;51.596;5.624;2023-05-21T09:51:58;101562.41;;;18.34;66.40
59043;BME280;44826;51.596;5.624;2023-05-21T09:54:25;101562.19;;;18.39;66.77
59043;BME280;44826;51.596;5.624;2023-05-21T09:56:54;101561.22;;;18.42;66.05
59043;BME280;44826;51.596;5.624;2023-05-21T09:59:20;101563.69;;;18.45;65.71
59043;BME280;44826;51.596;5.624;2023-05-21T10:01:46;101556.38;;;18.52;67.23
59043;BME280;44826;51.596;5.624;2023-05-21T10:04:14;101552.50;;;18.59;65.81
59043;BME280;44826;51.596;5.624;2023-05-21T10:06:42;101554.75;;;18.66;66.73
59043;BME280;44826;51.596;5.624;2023-05-21T10:09:10;101550.13;;;18.72;64.65
59043;BME280;44826;51.596;5.624;2023-05-21T10:11:36;101551.59;;;18.77;65.57
59043;BME280;44826;51.596;5.624;2023-05-21T10:14:06;101549.50;;;18.84;66.68
59043;BME280;44826;51.596;5.624;2023-05-21T10:16:34;101550.97;;;18.90;64.67
59043;BME280;44826;51.596;5.624;2023-05-21T10:19:00;101550.84;;;18.93;65.30
59043;BME280;44826;51.596;5.624;2023-05-21T10:21:26;101553.34;;;18.96;64.82
59043;BME280;44826;51.596;5.624;2023-05-21T10:23:52;101547.06;;;18.99;64.74
59043;BME280;44826;51.596;5.624;2023-05-21T10:26:19;101544.28;;;19.02;64.18
59043;BME280;44826;51.596;5.624;2023-05-21T10:28:45;101547.47;;;19.08;66.32
59043;BME280;44826;51.596;5.624;2023-05-21T10:31:11;101550.50;;;19.18;65.38
59043;BME280;44826;51.596;5.624;2023-05-21T10:33:37;101555.47;;;19.24;64.69
59043;BME280;44826;51.596;5.624;2023-05-21T10:36:03;101555.31;;;19.28;63.13
59043;BME280;44826;51.596;5.624;2023-05-21T10:38:30;101550.81;;;19.30;63.45
59043;BME280;44826;51.596;5.624;2023-05-21T10:40:56;101549.69;;;19.34;62.65
59043;BME280;44826;51.596;5.624;2023-05-21T10:43:44;101541.78;;;19.34;63.42
59043;BME280;44826;51.596;5.624;2023-05-21T10:46:31;101537.63;;;19.30;62.52
59043;BME280;44826;51.596;5.624;2023-05-21T10:49:21;101538.69;;;19.25;63.89
59043;BME280;44826;51.596;5.624;2023-05-21T10:51:53;101540.72;;;19.20;63.21
59043;BME280;44826;51.596;5.624;2023-05-21T10:57:12;101524.09;;;19.18;65.23
59043;BME280;44826;51.596;5.624;2023-05-21T10:59:42;101522.25;;;19.20;64.67
59043;BME280;44826;51.596;5.624;2023-05-21T11:02:10;101523.03;;;19.22;64.54
59043;BME280;44826;51.596;5.624;2023-05-21T11:04:37;101520.50;;;19.21;63.58
59043;BME280;44826;51.596;5.624;2023-05-21T11:07:05;101504.47;;;19.24;65.88
59043;BME280;44826;51.596;5.624;2023-05-21T11:09:31;101521.16;;;19.24;63.54
59043;BME280;44826;51.596;5.624;2023-05-21T11:11:57;101508.91;;;19.23;63.88
59043;BME280;44826;51.596;5.624;2023-05-21T11:14:39;101517.75;;;19.22;64.79
59043;BME280;44826;51.596;5.624;2023-05-21T11:19:40;101507.97;;;19.24;64.71
59043;BME280;44826;51.596;5.624;2023-05-21T11:22:27;101504.41;;;19.25;65.23
59043;BME280;44826;51.596;5.624;2023-05-21T11:24:53;101498.06;;;19.30;64.65
59043;BME280;44826;51.596;5.624;2023-05-21T11:30:22;101483.69;;;19.35;63.72
59043;BME280;44826;51.596;5.624;2023-05-21T11:38:18;101476.97;;;19.46;66.45
59043;BME280;44826;51.596;5.624;2023-05-21T11:40:51;101474.78;;;19.54;65.21
59043;BME280;44826;51.596;5.624;2023-05-21T11:43:19;101481.59;;;19.58;63.73
59043;BME280;44826;51.596;5.624;2023-05-21T11:45:46;101480.66;;;19.59;63.65
59043;BME280;44826;51.596;5.624;2023-05-21T11:48:15;101473.66;;;19.58;64.06
59043;BME280;44826;51.596;5.624;2023-05-21T11:50:40;101465.59;;;19.61;65.16
59043;BME280;44826;51.596;5.624;2023-05-21T11:53:06;101473.25;;;19.66;65.03
59043;BME280;44826;51.596;5.624;2023-05-21T11:55:37;101474.78;;;19.70;64.25
59043;BME280;44826;51.596;5.624;2023-05-21T11:58:04;101472.78;;;19.75;64.41
59043;BME280;44826;51.596;5.624;2023-05-21T12:00:37;101464.75;;;19.77;63.23
59043;BME280;44826;51.596;5.624;2023-05-21T12:03:04;101469.03;;;19.79;64.22
59043;BME280;44826;51.596;5.624;2023-05-21T12:05:43;101466.28;;;19.81;63.35
59043;BME280;44826;51.596;5.624;2023-05-21T12:08:08;101465.09;;;19.86;65.03
59043;BME280;44826;51.596;5.624;2023-05-21T12:10:36;101463.09;;;19.92;62.84
59043;BME280;44826;51.596;5.624;2023-05-21T12:13:03;101466.34;;;19.97;64.44
59043;BME280;44826;51.596;5.624;2023-05-21T12:15:29;101454.59;;;20.02;63.26
59043;BME280;44826;51.596;5.624;2023-05-21T12:17:54;101458.66;;;20.08;64.70
59043;BME280;44826;51.596;5.624;2023-05-21T12:20:20;101452.94;;;20.16;63.79
59043;BME280;44826;51.596;5.624;2023-05-21T12:22:47;101445.53;;;20.23;63.68
59043;BME280;44826;51.596;5.624;2023-05-21T12:25:13;101444.25;;;20.30;63.02
59043;BME280;44826;51.596;5.624;2023-05-21T12:27:38;101448.38;;;20.34;62.32
59043;BME280;44826;51.596;5.624;2023-05-21T12:30:06;101441.22;;;20.36;62.52
59043;BME280;44826;51.596;5.624;2023-05-21T12:32:32;101443.69;;;20.39;62.67
59043;BME280;44826;51.596;5.624;2023-05-21T12:34:57;101433.78;;;20.43;62.17
59043;BME280;44826;51.596;5.624;2023-05-21T12:37:29;101429.09;;;20.48;61.76
59043;BME280;44826;51.596;5.624;2023-05-21T12:40:01;101428.75;;;20.54;61.85
59043;BME280;44826;51.596;5.624;2023-05-21T12:42:30;101425.72;;;20.60;63.01
59043;BME280;44826;51.596;5.624;2023-05-21T12:44:58;101416.59;;;20.66;62.35
59043;BME280;44826;51.596;5.624;2023-05-21T12:47:25;101428.69;;;20.70;62.51
59043;BME280;44826;51.596;5.624;2023-05-21T12:49:58;101422.28;;;20.74;62.14
59043;BME280;44826;51.596;5.624;2023-05-21T12:52:24;101426.66;;;20.75;61.53
59043;BME280;44826;51.596;5.624;2023-05-21T12:54:52;101426.53;;;20.77;63.23
59043;BME280;44826;51.596;5.624;2023-05-21T12:57:19;101428.34;;;20.76;62.34
59043;BME280;44826;51.596;5.624;2023-05-21T12:59:52;101426.78;;;20.72;61.33
59043;BME280;44826;51.596;5.624;2023-05-21T13:02:37;101434.16;;;20.67;60.92